createdAt,value
2023-04-01T00:00:48.727Z,19.11
2023-04-01T00:01:48.733Z,19.06
2023-04-01T00:02:48.939Z,19.04
2023-04-01T00:03:48.800Z,19.07
2023-04-01T00:04:48.865Z,19.07
2023-04-01T00:05:48.723Z,19.10
2023-04-01T00:06:48.754Z,19.00
2023-04-01T00:07:48.702Z,19.02
2023-04-01T00:08:48.725Z,19.04
2023-04-01T00:09:48.713Z,18.99
2023-04-01T00:10:48.701Z,18.99
2023-04-01T00:11:48.694Z,19.07
2023-04-01T00:12:48.705Z,19.08
2023-04-01T00:13:48.701Z,19.07
2023-04-01T00:14:48.683Z,19.10
2023-04-01T00:15:48.731Z,19.06
2023-04-01T00:16:48.749Z,19.08
2023-04-01T00:17:48.786Z,19.07
2023-04-01T00:18:48.838Z,19.06
2023-04-01T00:19:48.667Z,19.08
2023-04-01T00:20:48.694Z,19.07
2023-04-01T00:21:48.666Z,19.08
2023-04-01T00:22:48.701Z,18.99
2023-04-01T00:23:48.666Z,19.07
2023-04-01T00:24:48.675Z,19.07
2023-04-01T00:25:48.674Z,19.04
2023-04-01T00:26:48.671Z,19.07
2023-04-01T00:27:48.663Z,18.94
2023-04-01T00:28:48.652Z,19.00
2023-04-01T00:29:48.653Z,19.04
2023-04-01T00:30:48.658Z,19.07
2023-04-01T00:31:48.646Z,19.07
2023-04-01T00:32:48.679Z,19.04
2023-04-01T00:33:48.642Z,18.98
2023-04-01T00:34:48.631Z,18.95
2023-04-01T00:35:48.645Z,18.98
2023-04-01T00:36:48.640Z,18.95
2023-04-01T00:37:48.617Z,18.98
2023-04-01T00:38:48.650Z,19.02
2023-04-01T00:39:48.614Z,19.04
2023-04-01T00:40:48.630Z,19.00
2023-04-01T00:41:48.619Z,19.07
2023-04-01T00:42:48.628Z,19.04
2023-04-01T00:43:48.628Z,18.94
2023-04-01T00:44:48.601Z,19.02
2023-04-01T00:45:48.617Z,18.98
2023-04-01T00:46:48.663Z,18.98
2023-04-01T00:47:48.649Z,19.04
2023-04-01T00:48:48.601Z,18.99
2023-04-01T00:49:48.607Z,18.99
2023-04-01T00:50:48.581Z,18.98
2023-04-01T00:51:48.590Z,18.95
2023-04-01T00:52:48.592Z,18.99
2023-04-01T00:53:48.583Z,18.94
2023-04-01T00:54:48.594Z,19.04
2023-04-01T00:55:48.579Z,18.94
2023-04-01T00:56:48.698Z,19.07
2023-04-01T00:57:48.583Z,18.94
2023-04-01T00:58:48.565Z,18.95
2023-04-01T00:59:48.566Z,19.06
2023-04-01T01:00:48.632Z,18.99
2023-04-01T01:01:48.559Z,18.99
2023-04-01T01:02:48.770Z,18.99
2023-04-01T01:03:48.540Z,18.98
2023-04-01T01:04:48.542Z,19.00
2023-04-01T01:05:49.567Z,18.99
2023-04-01T01:06:48.558Z,19.07
2023-04-01T01:07:48.558Z,18.98
2023-04-01T01:08:48.528Z,18.95
2023-04-01T01:09:48.538Z,18.99
2023-04-01T01:10:48.559Z,18.98
2023-04-01T01:11:48.516Z,19.04
2023-04-01T01:12:48.511Z,18.94
2023-04-01T01:13:48.525Z,18.98
2023-04-01T01:14:48.523Z,18.98
2023-04-01T01:15:48.515Z,18.98
2023-04-01T01:16:48.566Z,18.94
2023-04-01T01:17:48.566Z,18.94
2023-04-01T01:18:48.500Z,19.07
2023-04-01T01:19:48.511Z,18.90
2023-04-01T01:20:48.524Z,18.98
2023-04-01T01:21:48.486Z,18.98
2023-04-01T01:22:48.489Z,18.94
2023-04-01T01:23:48.494Z,18.99
2023-04-01T01:24:48.491Z,18.99
2023-04-01T01:25:48.491Z,18.94
2023-04-01T01:26:48.493Z,19.00
2023-04-01T01:27:48.469Z,18.92
2023-04-01T01:28:48.466Z,18.95
2023-04-01T01:29:48.477Z,18.94
2023-04-01T01:30:48.503Z,18.98
2023-04-01T01:31:48.482Z,19.04
2023-04-01T01:32:48.478Z,18.95
2023-04-01T01:33:48.459Z,18.94
2023-04-01T01:34:48.449Z,18.92
2023-04-01T01:35:48.517Z,18.92
2023-04-01T01:36:48.458Z,18.95
2023-04-01T01:37:48.450Z,18.98
2023-04-01T01:38:48.449Z,19.00
2023-04-01T01:39:48.430Z,18.98
2023-04-01T01:40:48.443Z,18.92
2023-04-01T01:41:48.426Z,18.98
2023-04-01T01:42:48.444Z,18.99
2023-04-01T01:43:48.430Z,18.92
2023-04-01T01:44:48.421Z,18.92
2023-04-01T01:45:48.472Z,18.98
2023-04-01T01:46:48.431Z,18.94
2023-04-01T01:47:48.452Z,18.95
2023-04-01T01:48:48.419Z,18.92
2023-04-01T01:49:48.419Z,18.95
2023-04-01T01:50:48.395Z,18.91
2023-04-01T01:51:48.394Z,18.90
2023-04-01T01:52:48.408Z,19.00
2023-04-01T01:53:48.405Z,18.91
2023-04-01T01:54:48.398Z,18.91
2023-04-01T01:55:48.396Z,18.91
2023-04-01T01:56:48.409Z,18.91
2023-04-01T01:57:48.397Z,18.95
2023-04-01T01:58:48.408Z,18.95
2023-04-01T01:59:48.385Z,18.84
2023-04-01T02:00:48.362Z,18.94
2023-04-01T02:01:48.401Z,18.90
2023-04-01T02:02:48.473Z,18.87
2023-04-01T02:03:48.361Z,18.88
2023-04-01T02:04:48.438Z,18.90
2023-04-01T02:05:48.388Z,18.94
2023-04-01T02:06:48.362Z,18.92
2023-04-01T02:07:48.349Z,18.88
2023-04-01T02:08:48.352Z,18.91
2023-04-01T02:09:48.338Z,18.99
2023-04-01T02:10:48.346Z,18.99
2023-04-01T02:11:48.357Z,18.90
2023-04-01T02:12:48.348Z,18.90
2023-04-01T02:13:48.344Z,18.90
2023-04-01T02:14:48.365Z,18.95
2023-04-01T02:15:48.367Z,18.95
2023-04-01T02:16:48.336Z,18.92
2023-04-01T02:17:48.410Z,18.99
2023-04-01T02:18:48.302Z,18.92
2023-04-01T02:19:48.311Z,18.91
2023-04-01T02:20:48.322Z,18.90
2023-04-01T02:21:48.308Z,18.85
2023-04-01T02:22:48.312Z,18.92
2023-04-01T02:23:48.298Z,18.90
2023-04-01T02:24:48.301Z,18.80
2023-04-01T02:25:48.294Z,18.94
2023-04-01T02:26:48.290Z,18.94
2023-04-01T02:27:48.302Z,18.92
2023-04-01T02:28:48.289Z,18.91
2023-04-01T02:29:48.309Z,18.94
2023-04-01T02:30:48.302Z,18.81
2023-04-01T02:31:48.346Z,18.90
2023-04-01T02:32:48.393Z,18.84
2023-04-01T02:33:48.276Z,18.94
2023-04-01T02:34:48.271Z,18.90
2023-04-01T02:35:48.321Z,18.91
2023-04-01T02:36:48.255Z,18.82
2023-04-01T02:37:48.262Z,18.90
2023-04-01T02:38:48.244Z,18.80
2023-04-01T02:39:48.270Z,18.84
2023-04-01T02:40:48.254Z,18.87
2023-04-01T02:41:48.255Z,18.87
2023-04-01T02:42:48.245Z,18.87
2023-04-01T02:43:48.232Z,18.88
2023-04-01T02:44:48.240Z,18.90
2023-04-01T02:45:48.282Z,18.87
2023-04-01T02:46:48.319Z,18.90
2023-04-01T02:47:48.250Z,18.84
2023-04-01T02:48:48.218Z,18.92
2023-04-01T02:49:48.231Z,18.92
2023-04-01T02:50:48.232Z,18.91
2023-04-01T02:51:48.250Z,18.80
2023-04-01T02:52:48.230Z,18.88
2023-04-01T02:53:48.221Z,18.94
2023-04-01T02:54:48.218Z,18.88
2023-04-01T02:55:48.218Z,18.81
2023-04-01T02:56:48.231Z,18.91
2023-04-01T02:57:48.212Z,18.88
2023-04-01T02:58:48.182Z,18.85
2023-04-01T02:59:48.198Z,18.78
2023-04-01T03:00:48.261Z,18.80
2023-04-01T03:01:48.203Z,18.78
2023-04-01T03:02:48.292Z,18.85
2023-04-01T03:03:48.198Z,18.91
2023-04-01T03:04:48.188Z,18.84
2023-04-01T03:05:48.178Z,18.85
2023-04-01T03:06:48.176Z,18.81
2023-04-01T03:07:48.182Z,18.85
2023-04-01T03:08:48.204Z,18.87
2023-04-01T03:09:48.178Z,18.73
2023-04-01T03:10:48.160Z,18.84
2023-04-01T03:11:48.152Z,18.85
2023-04-01T03:12:48.162Z,18.85
2023-04-01T03:13:48.155Z,18.87
2023-04-01T03:14:48.159Z,18.82
2023-04-01T03:15:48.157Z,18.85
2023-04-01T03:16:48.187Z,18.82
2023-04-01T03:17:48.173Z,18.82
2023-04-01T03:18:48.156Z,18.85
2023-04-01T03:19:48.154Z,18.82
2023-04-01T03:20:48.130Z,18.82
2023-04-01T03:21:48.127Z,18.88
2023-04-01T03:22:48.149Z,18.80
2023-04-01T03:23:48.132Z,18.91
2023-04-01T03:24:48.116Z,18.80
2023-04-01T03:25:48.117Z,18.88
2023-04-01T03:26:48.100Z,18.76
2023-04-01T03:27:48.126Z,18.78
2023-04-01T03:28:48.099Z,18.85
2023-04-01T03:29:48.140Z,18.82
2023-04-01T03:30:48.167Z,18.82
2023-04-01T03:31:48.084Z,18.80
2023-04-01T03:32:48.179Z,18.85
2023-04-01T03:33:48.083Z,18.76
2023-04-01T03:34:48.102Z,18.80
2023-04-01T03:35:48.085Z,18.78
2023-04-01T03:36:48.075Z,18.76
2023-04-01T03:37:48.094Z,18.80
2023-04-01T03:38:48.080Z,18.80
2023-04-01T03:39:48.066Z,18.76
2023-04-01T03:40:48.050Z,18.76
2023-04-01T03:41:48.072Z,18.75
2023-04-01T03:42:48.090Z,18.82
2023-04-01T03:43:48.046Z,18.76
2023-04-01T03:44:48.058Z,18.82
2023-04-01T03:45:48.059Z,18.76
2023-04-01T03:46:48.042Z,18.78
2023-04-01T03:47:48.036Z,18.72
2023-04-01T03:48:48.036Z,18.78
2023-04-01T03:49:48.039Z,18.78
2023-04-01T03:50:48.033Z,18.78
2023-04-01T03:51:48.014Z,18.78
2023-04-01T03:52:48.027Z,18.80
2023-04-01T03:53:48.021Z,18.81
2023-04-01T03:54:48.030Z,18.82
2023-04-01T03:55:48.018Z,18.72
2023-04-01T03:56:48.045Z,18.78
2023-04-01T03:57:48.041Z,18.72
2023-04-01T03:58:48.011Z,18.78
2023-04-01T03:59:48.009Z,18.76
2023-04-01T04:00:48.015Z,18.82
2023-04-01T04:01:48.000Z,18.72
2023-04-01T04:02:48.066Z,18.73
2023-04-01T04:03:48.102Z,18.66
2023-04-01T04:04:48.157Z,18.76
2023-04-01T04:05:47.995Z,18.78
2023-04-01T04:06:47.996Z,18.70
2023-04-01T04:07:47.986Z,18.70
2023-04-01T04:08:47.978Z,18.70
2023-04-01T04:09:47.986Z,18.70
2023-04-01T04:10:47.961Z,18.69
2023-04-01T04:11:47.976Z,18.70
2023-04-01T04:12:47.961Z,18.75
2023-04-01T04:13:47.969Z,18.70
2023-04-01T04:14:47.965Z,18.73
2023-04-01T04:15:47.967Z,18.75
2023-04-01T04:16:47.937Z,18.75
2023-04-01T04:17:47.962Z,18.69
2023-04-01T04:18:47.929Z,18.67
2023-04-01T04:19:47.957Z,18.70
2023-04-01T04:20:47.942Z,18.69
2023-04-01T04:21:47.941Z,18.69
2023-04-01T04:22:47.958Z,18.73
2023-04-01T04:23:47.928Z,18.78
2023-04-01T04:24:47.924Z,18.73
2023-04-01T04:25:47.935Z,18.70
2023-04-01T04:26:47.921Z,18.76
2023-04-01T04:27:47.920Z,18.65
2023-04-01T04:28:47.902Z,18.66
2023-04-01T04:29:47.900Z,18.69
2023-04-01T04:30:47.914Z,18.72
2023-04-01T04:31:47.924Z,18.72
2023-04-01T04:32:47.986Z,18.69
2023-04-01T04:33:47.893Z,18.70
2023-04-01T04:34:47.891Z,18.73
2023-04-01T04:35:47.908Z,18.72
2023-04-01T04:36:47.891Z,18.72
2023-04-01T04:37:47.892Z,18.72
2023-04-01T04:38:47.912Z,18.69
2023-04-01T04:39:47.869Z,18.69
2023-04-01T04:40:47.864Z,18.69
2023-04-01T04:41:47.874Z,18.73
2023-04-01T04:42:47.876Z,18.73
2023-04-01T04:43:47.862Z,18.73
2023-04-01T04:44:47.858Z,18.70
2023-04-01T04:45:47.877Z,18.72
2023-04-01T04:46:47.886Z,18.70
2023-04-01T04:47:47.864Z,18.65
2023-04-01T04:48:47.842Z,18.72
2023-04-01T04:49:47.854Z,18.67
2023-04-01T04:50:47.846Z,18.73
2023-04-01T04:51:47.844Z,18.65
2023-04-01T04:52:47.835Z,18.72
2023-04-01T04:53:47.842Z,18.73
2023-04-01T04:54:47.870Z,18.69
2023-04-01T04:55:47.838Z,18.67
2023-04-01T04:56:47.858Z,18.63
2023-04-01T04:57:47.806Z,18.62
2023-04-01T04:58:47.808Z,18.70
2023-04-01T04:59:47.820Z,18.75
2023-04-01T05:00:47.826Z,18.72
2023-04-01T05:01:47.944Z,18.73
2023-04-01T05:02:47.876Z,18.73
2023-04-01T05:03:47.902Z,18.66
2023-04-01T05:04:47.806Z,18.73
2023-04-01T05:05:47.805Z,18.69
2023-04-01T05:06:47.795Z,18.75
2023-04-01T05:07:47.771Z,18.65
2023-04-01T05:08:47.781Z,18.76
2023-04-01T05:09:47.774Z,18.72
2023-04-01T05:10:47.800Z,18.69
2023-04-01T05:11:47.911Z,18.65
2023-04-01T05:12:47.759Z,18.60
2023-04-01T05:13:47.786Z,18.65
2023-04-01T05:14:47.768Z,18.58
2023-04-01T05:15:47.760Z,18.60
2023-04-01T05:16:47.824Z,18.57
2023-04-01T05:17:47.816Z,18.57
2023-04-01T05:18:47.751Z,18.60
2023-04-01T05:19:47.740Z,18.63
2023-04-01T05:20:47.742Z,18.62
2023-04-01T05:21:47.807Z,18.67
2023-04-01T05:22:47.740Z,18.66
2023-04-01T05:23:47.745Z,18.60
2023-04-01T05:24:47.718Z,18.65
2023-04-01T05:25:47.731Z,18.67
2023-04-01T05:26:47.751Z,18.65
2023-04-01T05:27:47.718Z,18.62
2023-04-01T05:28:47.718Z,18.63
2023-04-01T05:29:47.712Z,18.65
2023-04-01T05:30:47.760Z,18.65
2023-04-01T05:31:47.721Z,18.63
2023-04-01T05:32:47.777Z,18.65
2023-04-01T05:33:47.705Z,18.65
2023-04-01T05:34:47.698Z,18.63
2023-04-01T05:35:47.724Z,18.60
2023-04-01T05:36:47.688Z,18.58
2023-04-01T05:37:47.693Z,18.63
2023-04-01T05:38:47.673Z,18.55
2023-04-01T05:39:47.667Z,18.57
2023-04-01T05:40:47.668Z,18.63
2023-04-01T05:41:47.670Z,18.65
2023-04-01T05:42:47.707Z,18.57
2023-04-01T05:43:47.675Z,18.57
2023-04-01T05:44:47.667Z,18.55
2023-04-01T05:45:47.679Z,18.57
2023-04-01T05:46:47.657Z,18.54
2023-04-01T05:47:47.688Z,18.63
2023-04-01T05:48:47.678Z,18.63
2023-04-01T05:49:47.646Z,18.54
2023-04-01T05:50:47.655Z,18.63
2023-04-01T05:51:47.656Z,18.60
2023-04-01T05:52:47.649Z,18.55
2023-04-01T05:53:47.634Z,18.50
2023-04-01T05:54:47.627Z,18.57
2023-04-01T05:55:47.631Z,18.57
2023-04-01T05:56:49.010Z,18.55
2023-04-01T05:57:47.621Z,18.55
2023-04-01T05:58:47.654Z,18.60
2023-04-01T05:59:47.622Z,18.54
2023-04-01T06:00:47.992Z,18.51
2023-04-01T06:01:47.614Z,18.52
2023-04-01T06:02:47.720Z,18.57
2023-04-01T06:03:47.830Z,18.58
2023-04-01T06:04:47.687Z,18.55
2023-04-01T06:05:47.593Z,18.54
2023-04-01T06:06:47.605Z,18.57
2023-04-01T06:07:47.595Z,18.55
2023-04-01T06:08:47.598Z,18.62
2023-04-01T06:09:47.572Z,18.58
2023-04-01T06:10:47.576Z,18.52
2023-04-01T06:11:47.567Z,18.54
2023-04-01T06:12:47.571Z,18.55
2023-04-01T06:13:47.556Z,18.54
2023-04-01T06:14:47.582Z,18.58
2023-04-01T06:15:47.560Z,18.54
2023-04-01T06:16:47.577Z,18.54
2023-04-01T06:17:47.563Z,18.58
2023-04-01T06:18:47.558Z,18.60
2023-04-01T06:19:47.557Z,18.54
2023-04-01T06:20:47.550Z,18.55
2023-04-01T06:21:47.581Z,18.57
2023-04-01T06:22:47.538Z,18.48
2023-04-01T06:23:47.538Z,18.54
2023-04-01T06:24:47.537Z,18.50
2023-04-01T06:25:47.535Z,18.55
2023-04-01T06:26:47.593Z,18.60
2023-04-01T06:27:47.540Z,18.50
2023-04-01T06:28:47.534Z,18.51
2023-04-01T06:29:47.523Z,18.60
2023-04-01T06:30:47.542Z,18.57
2023-04-01T06:31:47.576Z,18.57
2023-04-01T06:32:47.570Z,18.58
2023-04-01T06:33:47.498Z,18.66
2023-04-01T06:34:47.497Z,18.69
2023-04-01T06:35:47.552Z,18.62
2023-04-01T06:36:47.512Z,18.62
2023-04-01T06:37:47.506Z,18.66
2023-04-01T06:38:47.517Z,18.72
2023-04-01T06:39:47.491Z,18.75
2023-04-01T06:40:47.473Z,18.75
2023-04-01T06:41:47.468Z,18.69
2023-04-01T06:42:47.489Z,18.76
2023-04-01T06:43:47.467Z,18.82
2023-04-01T06:44:47.480Z,18.75
2023-04-01T06:45:47.476Z,18.81
2023-04-01T06:46:47.492Z,18.87
2023-04-01T06:47:47.500Z,18.81
2023-04-01T06:48:47.472Z,18.81
2023-04-01T06:49:47.460Z,18.91
2023-04-01T06:50:47.445Z,18.92
2023-04-01T06:51:47.443Z,18.99
2023-04-01T06:52:47.464Z,19.00
2023-04-01T06:53:47.451Z,18.92
2023-04-01T06:54:47.439Z,18.95
2023-04-01T06:55:47.426Z,18.95
2023-04-01T06:56:47.505Z,18.98
2023-04-01T06:57:47.438Z,19.04
2023-04-01T06:58:47.454Z,19.04
2023-04-01T06:59:47.418Z,19.04
2023-04-01T07:00:47.431Z,19.07
2023-04-01T07:01:47.529Z,19.08
2023-04-01T07:02:47.467Z,19.11
2023-04-01T07:03:47.428Z,19.19
2023-04-01T07:04:47.470Z,19.10
2023-04-01T07:05:47.414Z,19.10
2023-04-01T07:06:47.400Z,19.19
2023-04-01T07:07:47.406Z,19.26
2023-04-01T07:08:47.410Z,19.28
2023-04-01T07:09:47.389Z,19.21
2023-04-01T07:10:47.412Z,19.29
2023-04-01T07:11:47.382Z,19.23
2023-04-01T07:12:47.395Z,19.23
2023-04-01T07:13:47.380Z,19.31
2023-04-01T07:14:47.386Z,19.33
2023-04-01T07:15:47.368Z,19.32
2023-04-01T07:16:47.422Z,19.36
2023-04-01T07:17:47.427Z,19.33
2023-04-01T07:18:47.389Z,19.29
2023-04-01T07:19:47.359Z,19.39
2023-04-01T07:20:47.373Z,19.36
2023-04-01T07:21:47.371Z,19.46
2023-04-01T07:22:47.371Z,19.47
2023-04-01T07:23:47.362Z,19.39
2023-04-01T07:24:47.353Z,19.40
2023-04-01T07:25:47.360Z,19.47
2023-04-01T07:26:48.211Z,19.43
2023-04-01T07:27:47.361Z,19.48
2023-04-01T07:28:47.365Z,19.41
2023-04-01T07:29:47.352Z,19.44
2023-04-01T07:30:47.395Z,19.51
2023-04-01T07:31:47.343Z,19.55
2023-04-01T07:32:47.403Z,19.56
2023-04-01T07:33:47.346Z,19.55
2023-04-01T07:34:47.370Z,19.56
2023-04-01T07:35:47.369Z,19.66
2023-04-01T07:36:47.327Z,19.63
2023-04-01T07:37:47.322Z,19.71
2023-04-01T07:38:47.370Z,19.68
2023-04-01T07:39:47.321Z,19.69
2023-04-01T07:40:47.317Z,19.77
2023-04-01T07:41:47.313Z,19.84
2023-04-01T07:42:47.334Z,19.83
2023-04-01T07:43:47.309Z,19.81
2023-04-01T07:44:47.325Z,19.83
2023-04-01T07:45:47.320Z,19.86
2023-04-01T07:46:47.307Z,19.92
2023-04-01T07:47:47.387Z,19.95
2023-04-01T07:48:47.322Z,19.91
2023-04-01T07:49:47.302Z,20.05
2023-04-01T07:50:48.790Z,20.01
2023-04-01T07:51:47.314Z,19.98
2023-04-01T07:52:47.297Z,19.98
2023-04-01T07:53:47.314Z,20.01
2023-04-01T07:54:47.308Z,20.01
2023-04-01T07:55:47.299Z,19.98
2023-04-01T07:56:47.320Z,20.01
2023-04-01T07:57:47.299Z,20.05
2023-04-01T07:58:47.311Z,19.99
2023-04-01T07:59:47.296Z,20.02
2023-04-01T08:00:47.309Z,19.98
2023-04-01T08:01:47.274Z,20.02
2023-04-01T08:02:47.439Z,19.96
2023-04-01T08:03:47.357Z,20.02
2023-04-01T08:04:47.323Z,19.99
2023-04-01T08:05:47.288Z,19.95
2023-04-01T08:06:47.290Z,19.96
2023-04-01T08:07:47.290Z,19.87
2023-04-01T08:08:47.306Z,19.94
2023-04-01T08:09:47.270Z,19.96
2023-04-01T08:10:47.276Z,19.95
2023-04-01T08:11:47.266Z,19.94
2023-04-01T08:12:47.276Z,19.91
2023-04-01T08:13:47.262Z,19.92
2023-04-01T08:14:47.269Z,19.86
2023-04-01T08:15:47.272Z,19.86
2023-04-01T08:16:47.279Z,19.87
2023-04-01T08:17:47.285Z,19.78
2023-04-01T08:18:47.240Z,19.88
2023-04-01T08:19:47.246Z,19.92
2023-04-01T08:20:47.770Z,19.81
2023-04-01T08:21:47.235Z,19.86
2023-04-01T08:22:47.270Z,19.84
2023-04-01T08:23:47.273Z,19.83
2023-04-01T08:24:48.453Z,19.80
2023-04-01T08:25:47.227Z,19.86
2023-04-01T08:26:47.221Z,19.76
2023-04-01T08:27:47.219Z,19.78
2023-04-01T08:28:47.227Z,19.78
2023-04-01T08:29:47.233Z,19.73
2023-04-01T08:30:47.215Z,19.76
2023-04-01T08:31:47.281Z,19.73
2023-04-01T08:32:47.268Z,19.77
2023-04-01T08:33:47.212Z,19.74
2023-04-01T08:34:47.227Z,19.74
2023-04-01T08:35:47.245Z,19.80
2023-04-01T08:36:47.232Z,19.74
2023-04-01T08:37:47.204Z,19.73
2023-04-01T08:38:47.238Z,19.66
2023-04-01T08:39:47.205Z,19.66
2023-04-01T08:40:47.210Z,19.66
2023-04-01T08:41:47.204Z,19.68
2023-04-01T08:42:47.200Z,19.61
2023-04-01T08:43:47.196Z,19.68
2023-04-01T08:44:47.200Z,19.63
2023-04-01T08:45:47.216Z,19.74
2023-04-01T08:46:47.209Z,19.73
2023-04-01T08:47:47.222Z,19.65
2023-04-01T08:48:47.184Z,19.69
2023-04-01T08:49:47.188Z,19.65
2023-04-01T08:50:47.180Z,19.69
2023-04-01T08:51:47.169Z,19.65
2023-04-01T08:52:47.185Z,19.58
2023-04-01T08:53:47.162Z,19.66
2023-04-01T08:54:47.187Z,19.69
2023-04-01T08:55:47.178Z,19.58
2023-04-01T08:56:47.187Z,19.59
2023-04-01T08:57:47.171Z,19.63
2023-04-01T08:58:47.170Z,19.62
2023-04-01T08:59:47.167Z,19.63
2023-04-01T09:00:47.174Z,19.58
2023-04-01T09:01:47.154Z,19.58
2023-04-01T09:02:47.223Z,19.58
2023-04-01T09:03:47.198Z,19.59
2023-04-01T09:04:47.162Z,19.59
2023-04-01T09:05:47.148Z,19.55
2023-04-01T09:06:47.152Z,19.61
2023-04-01T09:07:47.131Z,19.58
2023-04-01T09:08:47.135Z,19.58
2023-04-01T09:09:47.163Z,19.55
2023-04-01T09:10:47.170Z,19.58
2023-04-01T09:11:47.180Z,19.56
2023-04-01T09:12:47.128Z,19.56
2023-04-01T09:13:47.134Z,19.58
2023-04-01T09:14:47.133Z,19.51
2023-04-01T09:15:47.155Z,19.55
2023-04-01T09:16:47.124Z,19.55
2023-04-01T09:17:47.173Z,19.54
2023-04-01T09:18:47.118Z,19.51
2023-04-01T09:19:47.112Z,19.56
2023-04-01T09:20:47.124Z,19.54
2023-04-01T09:21:47.103Z,19.51
2023-04-01T09:22:47.108Z,19.51
2023-04-01T09:23:47.126Z,19.51
2023-04-01T09:24:47.112Z,19.54
2023-04-01T09:25:47.112Z,19.55
2023-04-01T09:26:47.118Z,19.55
2023-04-01T09:27:47.103Z,19.44
2023-04-01T09:28:47.113Z,19.47
2023-04-01T09:29:47.093Z,19.48
2023-04-01T09:30:47.091Z,19.46
2023-04-01T09:31:47.168Z,19.39
2023-04-01T09:32:47.131Z,19.43
2023-04-01T09:33:47.098Z,19.51
2023-04-01T09:34:47.089Z,19.43
2023-04-01T09:35:47.090Z,19.47
2023-04-01T09:36:47.072Z,19.44
2023-04-01T09:37:47.087Z,19.44
2023-04-01T09:38:47.073Z,19.50
2023-04-01T09:39:47.062Z,19.46
2023-04-01T09:40:47.065Z,19.48
2023-04-01T09:41:47.080Z,19.44
2023-04-01T09:42:47.097Z,19.43
2023-04-01T09:43:47.062Z,19.43
2023-04-01T09:44:47.060Z,19.44
2023-04-01T09:45:47.061Z,19.46
2023-04-01T09:46:47.102Z,19.40
2023-04-01T09:47:47.125Z,19.46
2023-04-01T09:48:47.056Z,19.46
2023-04-01T09:49:47.054Z,19.36
2023-04-01T09:50:47.056Z,19.48
2023-04-01T09:51:47.052Z,19.39
2023-04-01T09:52:47.053Z,19.47
2023-04-01T09:53:47.035Z,19.41
2023-04-01T09:54:47.051Z,19.44
2023-04-01T09:55:47.040Z,19.47
2023-04-01T09:56:47.086Z,19.32
2023-04-01T09:57:47.025Z,19.47
2023-04-01T09:58:47.054Z,19.41
2023-04-01T09:59:47.028Z,19.32
2023-04-01T10:00:47.048Z,19.37
2023-04-01T10:01:47.056Z,19.36
2023-04-01T10:02:47.059Z,19.32
2023-04-01T10:03:47.012Z,19.39
2023-04-01T10:04:47.024Z,19.32
2023-04-01T10:05:47.077Z,19.33
2023-04-01T10:06:46.997Z,19.31
2023-04-01T10:07:47.024Z,19.41
2023-04-01T10:08:47.001Z,19.36
2023-04-01T10:09:47.003Z,19.32
2023-04-01T10:10:47.005Z,19.28
2023-04-01T10:11:46.982Z,19.22
2023-04-01T10:12:46.994Z,19.29
2023-04-01T10:13:46.982Z,19.28
2023-04-01T10:14:47.027Z,19.28
2023-04-01T10:15:46.972Z,19.28
2023-04-01T10:16:46.982Z,19.25
2023-04-01T10:17:46.993Z,19.31
2023-04-01T10:18:46.983Z,19.26
2023-04-01T10:19:46.983Z,19.26
2023-04-01T10:20:47.008Z,19.28
2023-04-01T10:21:46.981Z,19.28
2023-04-01T10:22:46.978Z,19.23
2023-04-01T10:23:46.966Z,19.29
2023-04-01T10:24:46.959Z,19.28
2023-04-01T10:25:46.959Z,19.25
2023-04-01T10:26:46.956Z,19.23
2023-04-01T10:27:46.965Z,19.26
2023-04-01T10:28:46.940Z,19.29
2023-04-01T10:29:46.956Z,19.25
2023-04-01T10:30:46.978Z,19.31
2023-04-01T10:31:47.000Z,19.32
2023-04-01T10:32:46.955Z,19.25
2023-04-01T10:33:46.942Z,19.22
2023-04-01T10:34:46.943Z,19.25
2023-04-01T10:35:46.935Z,19.22
2023-04-01T10:36:46.931Z,19.25
2023-04-01T10:37:46.952Z,19.29
2023-04-01T10:38:46.967Z,19.18
2023-04-01T10:39:46.933Z,19.18
2023-04-01T10:40:46.927Z,19.29
2023-04-01T10:41:46.934Z,19.23
2023-04-01T10:42:46.906Z,19.22
2023-04-01T10:43:46.929Z,19.21
2023-04-01T10:44:46.911Z,19.11
2023-04-01T10:45:47.003Z,19.19
2023-04-01T10:46:46.917Z,19.22
2023-04-01T10:47:46.967Z,19.25
2023-04-01T10:48:46.885Z,19.16
2023-04-01T10:49:46.920Z,19.21
2023-04-01T10:50:46.880Z,19.13
2023-04-01T10:51:46.901Z,19.21
2023-04-01T10:52:46.897Z,19.11
2023-04-01T10:53:46.873Z,19.19
2023-04-01T10:54:46.872Z,19.21
2023-04-01T10:55:46.915Z,19.23
2023-04-01T10:56:46.870Z,19.13
2023-04-01T10:57:46.875Z,19.22
2023-04-01T10:58:46.887Z,19.16
2023-04-01T10:59:46.876Z,19.11
2023-04-01T11:00:46.853Z,19.16
2023-04-01T11:01:49.124Z,19.06
2023-04-01T11:02:46.938Z,19.13
2023-04-01T11:03:47.021Z,19.18
2023-04-01T11:04:46.846Z,19.13
2023-04-01T11:05:46.846Z,19.10
2023-04-01T11:06:46.841Z,19.13
2023-04-01T11:07:55.818Z,19.13
2023-04-01T11:08:46.908Z,19.11
2023-04-01T11:09:46.908Z,19.13
2023-04-01T11:10:46.842Z,19.11
2023-04-01T11:11:46.840Z,19.07
2023-04-01T11:12:46.827Z,19.13
2023-04-01T11:13:46.824Z,19.08
2023-04-01T11:14:46.836Z,19.13
2023-04-01T11:15:46.869Z,19.19
2023-04-01T11:16:46.827Z,19.06
2023-04-01T11:17:46.919Z,19.10
2023-04-01T11:18:46.846Z,19.10
2023-04-01T11:19:46.824Z,19.14
2023-04-01T11:20:46.826Z,19.13
2023-04-01T11:21:46.842Z,19.08
2023-04-01T11:22:46.818Z,19.06
2023-04-01T11:23:58.353Z,19.08
2023-04-01T11:24:46.788Z,19.13
2023-04-01T11:25:46.803Z,19.08
2023-04-01T11:26:46.844Z,19.16
2023-04-01T11:27:46.788Z,19.13
2023-04-01T11:28:46.785Z,19.10
2023-04-01T11:29:58.659Z,19.07
2023-04-01T11:30:46.779Z,19.07
2023-04-01T11:31:46.881Z,19.10
2023-04-01T11:32:46.835Z,19.06
2023-04-01T11:33:46.784Z,19.08
2023-04-01T11:34:46.828Z,19.11
2023-04-01T11:35:46.778Z,19.11
2023-04-01T11:36:46.792Z,18.98
2023-04-01T11:37:46.786Z,19.13
2023-04-01T11:38:46.756Z,19.10
2023-04-01T11:39:46.755Z,19.07
2023-04-01T11:40:46.765Z,19.08
2023-04-01T11:41:46.756Z,19.07
2023-04-01T11:42:46.752Z,19.08
2023-04-01T11:43:46.763Z,19.06
2023-04-01T11:44:46.766Z,19.13
2023-04-01T11:45:46.741Z,19.07
2023-04-01T11:46:46.802Z,19.11
2023-04-01T11:47:46.805Z,19.10
2023-04-01T11:48:46.757Z,19.04
2023-04-01T11:49:46.749Z,19.06
2023-04-01T11:50:46.741Z,19.06
2023-04-01T11:51:46.745Z,19.04
2023-04-01T11:52:46.741Z,19.04
2023-04-01T11:53:46.733Z,19.13
2023-04-01T11:54:46.732Z,19.08
2023-04-01T11:55:48.095Z,19.06
2023-04-01T11:56:46.842Z,19.08
2023-04-01T11:57:46.718Z,19.06
2023-04-01T11:58:46.734Z,19.07
2023-04-01T11:59:46.718Z,19.06
2023-04-01T12:00:46.719Z,19.00
2023-04-01T12:01:46.699Z,19.02
2023-04-01T12:02:46.773Z,18.99
2023-04-01T12:03:46.821Z,19.10
2023-04-01T12:04:46.811Z,19.07
2023-04-01T12:05:46.710Z,19.10
2023-04-01T12:06:46.718Z,18.99
2023-04-01T12:07:46.711Z,19.06
2023-04-01T12:08:46.687Z,19.04
2023-04-01T12:09:46.676Z,19.00
2023-04-01T12:10:46.688Z,19.07
2023-04-01T12:11:46.689Z,19.02
2023-04-01T12:12:58.093Z,19.06
2023-04-01T12:13:46.708Z,19.07
2023-04-01T12:14:46.669Z,19.07
2023-04-01T12:15:46.677Z,19.06
2023-04-01T12:16:46.760Z,19.07
2023-04-01T12:17:46.677Z,19.10
2023-04-01T12:18:46.653Z,19.02
2023-04-01T12:19:46.679Z,18.99
2023-04-01T12:20:46.658Z,19.11
2023-04-01T12:21:46.665Z,18.95
2023-04-01T12:22:46.675Z,19.07
2023-04-01T12:23:46.655Z,19.07
2023-04-01T12:24:46.652Z,19.10
2023-04-01T12:25:46.639Z,19.00
2023-04-01T12:26:46.641Z,19.00
2023-04-01T12:27:46.649Z,19.07
2023-04-01T12:28:46.639Z,19.02
2023-04-01T12:29:46.637Z,19.08
2023-04-01T12:30:46.660Z,19.06
2023-04-01T12:31:46.628Z,19.08
2023-04-01T12:32:46.652Z,19.08
2023-04-01T12:33:46.634Z,19.06
2023-04-01T12:34:46.643Z,19.02
2023-04-01T12:35:46.663Z,18.99
2023-04-01T12:36:47.614Z,19.10
2023-04-01T12:37:46.606Z,19.02
2023-04-01T12:38:46.666Z,19.08
2023-04-01T12:39:46.621Z,18.99
2023-04-01T12:40:46.626Z,18.98
2023-04-01T12:41:46.615Z,19.04
2023-04-01T12:42:46.620Z,19.00
2023-04-01T12:43:46.606Z,19.07
2023-04-01T12:44:46.586Z,19.08
2023-04-01T12:45:46.668Z,19.04
2023-04-01T12:46:46.591Z,19.07
2023-04-01T12:47:46.614Z,18.98
2023-04-01T12:48:46.572Z,19.00
2023-04-01T12:49:46.595Z,19.04
2023-04-01T12:50:46.582Z,18.95
2023-04-01T12:51:46.583Z,19.00
2023-04-01T12:52:46.561Z,19.04